Portada
METAR-TAF:

METAR-TAF

Aeropuertos :

Munda, Nueva Georgia, Islas Salomón

latitud: 8-19-41S, longitud: 157-15-47E, altitud: 3 m

Observación

El informe se hizo hace 14 horas y 7 minutos, a las 03:00 UTC
Viento 5 kt del sureste
Temperatura 32°C
Humedad 67%
Presión 1011 hPa
Visibilidad 10 km o más
Escasas nubes a una altura de 2000 ft
Cielo nuboso a una altura de 32000 ft

METAR: AGGM 270300Z 14005KT 9999 FEW020 BKN320 32/25 Q1011

Hora: 04:07 (17:07 UTC)

Pronóstico

El informe se hizo hace 6 horas y 7 minutos, a las 11:00 UTC
Pronóstico válido del 27 a las 12 UTC al 28 a las 12 UTC
Viento 3 kt con dirección variable
Visibilidad: 1012 m
Nubes dispersas a una altura de 1700 ft

TAF: AGGM 271100Z 2712/2812 VRB03KT 9999 SCT017 Q 1013 1011 1010 1012

Observaciones y pronósticos meteorológicos de más de 4000 aeropuertos (mensajes METAR y TAF).

Los puntos amarillos y rojos representan las estaciones disponibles.

Ponga el ratón en el punto deseado para ver el nombre de la estación.

Haga clic para ver las observaciones y los pronósticos meteorológicos.

Para cambiar el mapa : haga clic en los botones verdes con una cruz de color negro para hacer un zoom, en el botón verde con un guión para alejar o en las flechas verdes para mapas adyacentes.


METAR-TAF: